Time;durP1;ratioP1;P1;durP2;ratioP2;P2;SDS_P1;SDS_P2;PMS_P1;PMS_P2;Temp;Humidity;BMP_temperature;BMP_pressure;BME280_temperature;BME280_humidity;BME280_pressure;Samples;Min_cycle;Max_cycle;Signal;HPM_P1;HPM_P2
2021/07/01 00:01:41;;;;;;;;;;;;;;;18.53;63.52;101191.44;5017108;28;945;-55
2021/07/01 00:04:06;;;;;;;;;;;;;;;18.50;63.83;101197.97;5006851;28;1889;-57
2021/07/01 00:06:31;;;;;;;;;;;;;;;18.51;63.38;101188.03;4997933;28;1455;-58
2021/07/01 00:08:56;;;;;;;;;;;;;;;18.51;63.58;101188.03;4997201;28;1918;-57
2021/07/01 00:11:21;;;;;;;;;;;;;;;18.53;62.37;101186.03;4998872;28;1824;-56
2021/07/01 00:13:46;;;;;;;;;;;;;;;18.53;64.13;101191.44;5016991;28;1005;-57
2021/07/01 00:16:11;;;;;;;;;;;;;;;18.52;63.67;101192.44;5016411;28;1576;-58
2021/07/01 00:18:36;;;;;;;;;;;;;;;18.50;63.75;101184.47;5016820;28;860;-57
2021/07/01 00:21:01;;;;;;;;;;;;;;;18.49;63.35;101190.88;5016952;28;993;-56
2021/07/01 00:23:27;;;;;;;;;;;;;;;18.53;63.69;101186.03;5016365;28;1874;-57
2021/07/01 00:25:52;;;;;;;;;;;;;;;18.51;63.82;101190.72;5016685;28;1567;-56
2021/07/01 00:28:17;;;;;;;;;;;;;;;18.48;63.66;101191.88;5016895;28;1901;-55
2021/07/01 00:30:42;;;;;;;;;;;;;;;18.48;63.60;101188.31;5007276;28;1768;-55
2021/07/01 00:33:07;;;;;;;;;;;;;;;18.47;63.25;101187.47;4997369;28;886;-56
2021/07/01 00:35:32;;;;;;;;;;;;;;;18.49;63.28;101187.31;4997243;28;1774;-56
2021/07/01 00:37:57;;;;;;;;;;;;;;;18.50;64.09;101184.47;4997354;28;1032;-56
2021/07/01 00:40:22;;;;;;;;;;;;;;;18.50;63.37;101175.53;5002321;28;1875;-57
2021/07/01 00:42:47;;;;;;;;;;;;;;;18.50;63.44;101180.94;5016440;28;1822;-57
2021/07/01 00:45:12;;;;;;;;;;;;;;;18.48;64.01;101185.59;5016231;28;857;-56
2021/07/01 00:47:37;;;;;;;;;;;;;;;18.50;63.45;101186.31;5016596;28;856;-56
2021/07/01 00:50:02;;;;;;;;;;;;;;;18.50;63.02;101178.22;5016578;28;1973;-56
2021/07/01 00:52:28;;;;;;;;;;;;;;;18.50;62.72;101183.63;5007902;28;1786;-56
2021/07/01 00:54:53;;;;;;;;;;;;;;;18.49;64.08;101182.78;4996751;28;1633;-56
2021/07/01 00:57:18;;;;;;;;;;;;;;;18.49;63.47;101180.06;4996635;28;973;-56
2021/07/01 00:59:43;;;;;;;;;;;;;;;18.48;63.82;101178.38;4998838;28;1803;-56
2021/07/01 01:02:08;;;;;;;;;;;;;;;18.49;63.52;101179.22;5016143;28;878;-55
2021/07/01 01:04:33;;;;;;;;;;;;;;;18.45;64.29;101181.34;5016397;28;1615;-57
2021/07/01 01:06:58;;;;;;;;;;;;;;;18.44;63.75;101179.66;5016225;28;1099;-50
2021/07/01 01:09:23;;;;;;;;;;;;;;;18.44;63.57;101182.38;5015169;28;1907;-52
2021/07/01 01:11:48;;;;;;;;;;;;;;;18.45;64.06;101184.03;5014451;28;2264;-50
2021/07/01 01:14:13;;;;;;;;;;;;;;;18.46;63.30;101174.09;5014831;28;1638;-52
2021/07/01 01:16:39;;;;;;;;;;;;;;;18.46;63.76;101180.34;5016107;28;1064;-52
2021/07/01 01:19:04;;;;;;;;;;;;;;;18.44;63.97;101170.72;5015785;28;1075;-52
2021/07/01 01:21:29;;;;;;;;;;;;;;;18.42;63.74;101175.41;5015063;28;1966;-53
2021/07/01 01:23:54;;;;;;;;;;;;;;;18.42;64.14;101178.09;5016020;28;1576;-54
2021/07/01 01:26:19;;;;;;;;;;;;;;;18.38;64.11;101174.81;5015095;28;857;-51
2021/07/01 01:28:44;;;;;;;;;;;;;;;18.34;63.86;101182.34;5014249;28;1894;-49
2021/07/01 01:31:09;;;;;;;;;;;;;;;18.37;63.58;101175.81;5015382;28;949;-50
2021/07/01 01:33:34;;;;;;;;;;;;;;;18.39;63.94;101176.53;5016150;28;1592;-55
2021/07/01 01:35:59;;;;;;;;;;;;;;;18.36;63.50;101168.72;5015543;28;1001;-54
2021/07/01 01:38:24;;;;;;;;;;;;;;;18.35;64.06;101170.56;4999115;28;1898;-55
2021/07/01 01:40:50;;;;;;;;;;;;;;;18.31;63.37;101166.44;4995806;28;1316;-57
2021/07/01 01:43:15;;;;;;;;;;;;;;;18.32;63.69;101167.28;4995542;28;1001;-57
2021/07/01 01:45:40;;;;;;;;;;;;;;;18.35;63.65;101175.97;4995833;28;1182;-57
2021/07/01 01:48:05;;;;;;;;;;;;;;;18.36;64.25;101164.19;5008399;28;1910;-56
2021/07/01 01:50:30;;;;;;;;;;;;;;;18.35;64.22;101164.31;5015789;28;1542;-57
2021/07/01 01:52:55;;;;;;;;;;;;;;;18.35;64.23;101161.63;5015351;28;851;-57
2021/07/01 01:55:20;;;;;;;;;;;;;;;18.32;64.36;101162.75;5012862;28;1815;-58
2021/07/01 01:57:45;;;;;;;;;;;;;;;18.33;63.53;101164.47;5010044;28;1848;-57
2021/07/01 02:00:10;;;;;;;;;;;;;;;18.33;63.30;101158.19;5015551;28;1592;-56
2021/07/01 02:02:35;;;;;;;;;;;;;;;18.32;63.56;101156.50;5015577;28;1009;-58
2021/07/01 02:05:00;;;;;;;;;;;;;;;18.32;63.58;101157.34;5012166;28;1773;-56
2021/07/01 02:07:26;;;;;;;;;;;;;;;18.30;63.89;101161.19;5015282;28;862;-56
2021/07/01 02:09:51;;;;;;;;;;;;;;;18.31;64.05;101161.03;5015223;28;2020;-55
2021/07/01 02:12:16;;;;;;;;;;;;;;;18.29;63.70;101163.03;5015318;28;837;-56
2021/07/01 02:14:41;;;;;;;;;;;;;;;18.29;63.55;101168.41;5012270;28;1851;-56
2021/07/01 02:17:06;;;;;;;;;;;;;;;18.30;63.34;101169.28;4994197;28;977;-55
2021/07/01 02:19:31;;;;;;;;;;;;;;;18.29;63.69;101168.41;4995530;28;1446;-55
2021/07/01 02:21:56;;;;;;;;;;;;;;;18.28;63.75;101166.72;4995544;28;803;-55
2021/07/01 02:24:21;;;;;;;;;;;;;;;18.28;63.62;101166.72;5008336;28;2023;-55
2021/07/01 02:26:46;;;;;;;;;;;;;;;18.28;63.24;101161.31;5015328;28;1005;-57
2021/07/01 02:29:11;;;;;;;;;;;;;;;18.26;63.53;101168.72;5014965;28;1898;-57
2021/07/01 02:31:36;;;;;;;;;;;;;;;18.28;63.48;101174.81;5013627;28;1228;-52
2021/07/01 02:34:01;;;;;;;;;;;;;;;18.25;63.24;101161.63;5004287;28;1738;-54
2021/07/01 02:36:27;;;;;;;;;;;;;;;18.25;63.14;101166.16;4995705;28;886;-54
2021/07/01 02:38:52;;;;;;;;;;;;;;;18.27;63.61;101167.72;4997980;28;811;-49
2021/07/01 02:41:17;;;;;;;;;;;;;;;18.28;63.85;101168.56;4999156;28;1186;-50
2021/07/01 02:43:42;;;;;;;;;;;;;;;18.25;63.68;101163.47;4999278;28;1013;-52
2021/07/01 02:46:07;;;;;;;;;;;;;;;18.27;63.61;101159.63;5007775;28;1980;-56
2021/07/01 02:48:32;;;;;;;;;;;;;;;18.22;63.63;101155.66;5018677;28;1962;-54
2021/07/01 02:50:57;;;;;;;;;;;;;;;18.25;63.88;101158.06;5018222;28;874;-56
2021/07/01 02:53:22;;;;;;;;;;;;;;;18.24;63.88;101151.81;5017504;28;1956;-54
2021/07/01 02:55:47;;;;;;;;;;;;;;;18.22;63.68;101156.50;5017904;28;1866;-56
2021/07/01 02:58:12;;;;;;;;;;;;;;;18.18;63.26;101152.38;5018280;28;1008;-54
2021/07/01 03:00:37;;;;;;;;;;;;;;;18.19;63.64;101143.28;5013241;28;1888;-54
2021/07/01 03:03:03;;;;;;;;;;;;;;;18.22;63.43;101148.41;4998369;28;1021;-57
2021/07/01 03:05:28;;;;;;;;;;;;;;;18.20;63.45;101142.31;4998868;28;1624;-58
2021/07/01 03:07:53;;;;;;;;;;;;;;;18.20;63.69;101150.41;4999124;28;905;-58
2021/07/01 03:10:18;;;;;;;;;;;;;;;18.21;63.62;101143.16;5000311;28;1953;-59
2021/07/01 03:12:43;;;;;;;;;;;;;;;18.20;63.83;101142.31;5012443;28;1779;-58
2021/07/01 03:15:08;;;;;;;;;;;;;;;18.21;63.61;101152.09;4998481;28;1560;-58
2021/07/01 03:17:33;;;;;;;;;;;;;;;18.19;63.46;101151.41;4998839;28;850;-59
2021/07/01 03:19:58;;;;;;;;;;;;;;;18.21;63.42;101154.81;4998288;28;925;-58
2021/07/01 03:22:23;;;;;;;;;;;;;;;18.19;63.85;101156.78;5002322;28;1995;-57
2021/07/01 03:24:48;;;;;;;;;;;;;;;18.14;63.44;101148.25;5017870;28;1828;-58
2021/07/01 03:27:13;;;;;;;;;;;;;;;18.15;63.28;101149.97;5018215;28;878;-58
2021/07/01 03:29:38;;;;;;;;;;;;;;;18.15;64.00;101144.56;5017562;28;1886;-58
2021/07/01 03:32:04;;;;;;;;;;;;;;;18.17;63.47;101145.28;4999645;28;1889;-59
2021/07/01 03:34:29;;;;;;;;;;;;;;;18.16;63.30;101143.56;4998712;28;891;-60
2021/07/01 03:36:54;;;;;;;;;;;;;;;18.14;63.85;101140.16;4998304;28;1013;-56
2021/07/01 03:39:19;;;;;;;;;;;;;;;18.15;63.32;101149.09;4998282;28;906;-57
2021/07/01 03:41:44;;;;;;;;;;;;;;;18.08;63.02;101151.53;4999064;28;1772;-58
2021/07/01 03:44:11;;;;;;;;;;;;;;;18.08;64.08;101154.22;4997641;28;862;-59
2021/07/01 03:46:37;;;;;;;;;;;;;;;18.12;63.94;101157.47;4997883;28;826;-58
2021/07/01 03:49:02;;;;;;;;;;;;;;;18.10;63.95;101163.00;4997187;28;1914;-59
2021/07/01 03:51:27;;;;;;;;;;;;;;;18.09;63.16;101155.94;5012279;28;1867;-59
2021/07/01 03:53:52;;;;;;;;;;;;;;;18.08;63.48;101159.63;5017525;28;1661;-59
2021/07/01 03:56:17;;;;;;;;;;;;;;;18.10;63.57;101162.16;5017599;28;823;-59
2021/07/01 03:58:42;;;;;;;;;;;;;;;18.10;64.29;101165.72;5017402;28;879;-57
2021/07/01 04:01:08;;;;;;;;;;;;;;;18.09;63.86;101166.72;5005112;28;1724;-57
2021/07/01 04:03:33;;;;;;;;;;;;;;;18.08;64.02;101161.47;5013441;28;1743;-58
2021/07/01 04:05:58;;;;;;;;;;;;;;;18.05;63.72;101165.28;5017024;28;953;-56
2021/07/01 04:08:23;;;;;;;;;;;;;;;18.08;64.17;101165.03;5017149;28;1962;-55
2021/07/01 04:10:48;;;;;;;;;;;;;;;18.09;63.88;101161.34;5004973;28;1946;-55
2021/07/01 04:13:14;;;;;;;;;;;;;;;18.08;64.08;101162.31;4997161;28;852;-55
2021/07/01 04:15:39;;;;;;;;;;;;;;;18.06;63.83;101167.00;4997637;28;823;-56
2021/07/01 04:18:04;;;;;;;;;;;;;;;18.08;64.35;101165.03;4997918;28;993;-58
2021/07/01 04:20:29;;;;;;;;;;;;;;;18.08;64.17;101158.78;5005985;28;1774;-60
2021/07/01 04:22:54;;;;;;;;;;;;;;;18.09;64.11;101173.97;5017024;28;826;-60
2021/07/01 04:25:19;;;;;;;;;;;;;;;18.04;64.08;101169.84;5017051;28;1005;-61
2021/07/01 04:27:44;;;;;;;;;;;;;;;18.01;64.03;101170.13;5016675;28;943;-61
2021/07/01 04:30:09;;;;;;;;;;;;;;;18.03;64.15;101168.13;5008282;28;1890;-53
2021/07/01 04:32:35;;;;;;;;;;;;;;;18.04;64.19;101169.84;5016495;28;811;-56
2021/07/01 04:35:00;;;;;;;;;;;;;;;18.02;64.33;101176.34;5016559;28;922;-56
2021/07/01 04:37:25;;;;;;;;;;;;;;;18.01;63.82;101167.41;5016874;28;856;-54
2021/07/01 04:39:50;;;;;;;;;;;;;;;18.03;64.34;101172.66;5015907;28;1810;-55
2021/07/01 04:42:15;;;;;;;;;;;;;;;18.03;63.98;101170.81;5016380;28;1535;-57
2021/07/01 04:44:40;;;;;;;;;;;;;;;18.05;64.05;101173.38;5016559;28;998;-57
2021/07/01 04:47:05;;;;;;;;;;;;;;;18.04;64.10;101175.22;5016742;28;1076;-54
2021/07/01 04:49:30;;;;;;;;;;;;;;;18.04;64.91;101174.38;5015552;28;1902;-51
2021/07/01 04:51:55;;;;;;;;;;;;;;;18.04;64.45;101172.53;5015974;28;1784;-56
2021/07/01 04:54:20;;;;;;;;;;;;;;;18.06;64.27;101174.25;5015609;28;1655;-56
2021/07/01 04:56:46;;;;;;;;;;;;;;;18.06;64.16;101172.41;5016185;28;1000;-57
2021/07/01 04:59:11;;;;;;;;;;;;;;;18.06;63.64;101167.00;5013453;28;1880;-59
2021/07/01 05:01:37;;;;;;;;;;;;;;;18.14;65.46;101166.28;5011891;28;1663;-58
2021/07/01 05:04:02;;;;;;;;;;;;;;;18.18;65.20;101173.13;5015424;28;1876;-58
2021/07/01 05:06:27;;;;;;;;;;;;;;;18.18;66.64;101171.25;5015794;28;1678;-57
2021/07/01 05:08:52;;;;;;;;;;;;;;;18.22;65.44;101166.44;5014954;28;1944;-59
2021/07/01 05:11:17;;;;;;;;;;;;;;;18.21;67.39;101170.13;5014768;28;1972;-58
2021/07/01 05:13:42;;;;;;;;;;;;;;;18.20;67.04;101166.59;5015788;28;993;-58
2021/07/01 05:16:07;;;;;;;;;;;;;;;18.20;66.64;101163.03;5016195;28;1067;-58
2021/07/01 05:18:32;;;;;;;;;;;;;;;18.17;67.00;101172.25;5015818;28;1706;-58
2021/07/01 05:20:57;;;;;;;;;;;;;;;18.19;66.64;101174.81;5008781;28;1956;-56
2021/07/01 05:23:22;;;;;;;;;;;;;;;18.18;66.50;101171.25;5015450;28;1559;-56
2021/07/01 05:25:47;;;;;;;;;;;;;;;18.17;66.11;101174.94;5015251;28;1694;-56
2021/07/01 05:28:12;;;;;;;;;;;;;;;18.14;66.01;101169.84;5015225;28;1886;-56
2021/07/01 05:30:38;;;;;;;;;;;;;;;18.12;66.02;101169.13;5015034;28;1567;-57
2021/07/01 05:33:04;;;;;;;;;;;;;;;18.10;65.89;101171.09;5012061;28;1902;-56
2021/07/01 05:35:29;;;;;;;;;;;;;;;18.12;66.16;101166.41;5014836;28;1718;-57
2021/07/01 05:37:54;;;;;;;;;;;;;;;18.11;65.90;101172.81;5015445;28;1624;-56
2021/07/01 05:40:21;;;;;;;;;;;;;;;18.09;65.99;101169.44;5015196;28;1311;-56
2021/07/01 05:42:46;;;;;;;;;;;;;;;18.10;65.54;101171.09;5014931;28;1856;-57
2021/07/01 05:45:12;;;;;;;;;;;;;;;18.11;66.11;101158.47;4994902;28;1848;-56
2021/07/01 05:47:38;;;;;;;;;;;;;;;18.10;66.06;101168.41;4995429;28;842;-57
2021/07/01 05:50:03;;;;;;;;;;;;;;;18.08;65.15;101170.41;5001726;28;1963;-57
2021/07/01 05:52:31;;;;;;;;;;;;;;;18.08;66.00;101167.72;5014976;28;803;-57
2021/07/01 05:54:57;;;;;;;;;;;;;;;18.06;65.32;101164.31;5008727;28;1859;-57
2021/07/01 05:57:22;;;;;;;;;;;;;;;18.06;65.53;101161.59;5012820;28;1324;-57
2021/07/01 05:59:48;;;;;;;;;;;;;;;18.05;65.40;101168.00;5014861;28;922;-57
2021/07/01 06:02:13;;;;;;;;;;;;;;;18.04;65.30;101169.84;5014579;28;795;-57
2021/07/01 06:04:38;;;;;;;;;;;;;;;18.06;65.76;101167.00;5014774;28;1727;-57
2021/07/01 06:07:03;;;;;;;;;;;;;;;18.08;65.66;101169.56;5014444;28;1679;-57
2021/07/01 06:09:28;;;;;;;;;;;;;;;18.08;65.54;101173.13;5015045;28;1947;-58
2021/07/01 06:11:53;;;;;;;;;;;;;;;18.08;65.90;101172.25;5015238;28;847;-57
2021/07/01 06:14:18;;;;;;;;;;;;;;;18.08;66.27;101170.41;5016464;28;1902;-56
2021/07/01 06:16:43;;;;;;;;;;;;;;;18.06;65.74;101172.41;4999627;28;1603;-58
2021/07/01 06:19:08;;;;;;;;;;;;;;;18.05;65.64;101178.78;4999200;28;1008;-58
2021/07/01 06:21:34;;;;;;;;;;;;;;;18.08;65.71;101183.06;4998280;28;1403;-58
2021/07/01 06:23:59;;;;;;;;;;;;;;;18.01;65.64;101183.59;5011424;28;1792;-58
2021/07/01 06:26:26;;;;;;;;;;;;;;;18.02;65.68;101177.22;5018932;28;866;-58
2021/07/01 06:28:51;;;;;;;;;;;;;;;18.07;65.52;101186.75;5018706;28;1890;-58
2021/07/01 06:31:16;;;;;;;;;;;;;;;18.07;65.87;101184.91;5015055;28;1924;-58
2021/07/01 06:33:43;;;;;;;;;;;;;;;18.07;65.51;101181.34;5013383;28;1654;-57
2021/07/01 06:36:08;;;;;;;;;;;;;;;18.08;65.67;101183.91;5017786;28;1521;-55
2021/07/01 06:38:33;;;;;;;;;;;;;;;18.08;65.61;101180.34;5023159;28;1558;-58
2021/07/01 06:40:58;;;;;;;;;;;;;;;18.06;65.28;101177.78;5017579;28;1653;-57
2021/07/01 06:43:23;;;;;;;;;;;;;;;18.08;65.29;101180.34;5017278;28;1635;-58
2021/07/01 06:45:51;;;;;;;;;;;;;;;18.09;65.68;101180.22;5017414;28;1729;-58
2021/07/01 06:48:16;;;;;;;;;;;;;;;18.08;65.65;101183.06;5012449;28;1911;-58
2021/07/01 06:50:42;;;;;;;;;;;;;;;18.04;65.17;101175.22;5024978;28;1561;-58
2021/07/01 06:53:07;;;;;;;;;;;;;;;18.09;65.55;101177.53;5017290;28;1690;-58
2021/07/01 06:55:32;;;;;;;;;;;;;;;18.10;65.74;101181.88;5017365;28;1706;-56
2021/07/01 06:57:57;;;;;;;;;;;;;;;18.05;65.76;101184.19;5017889;28;1609;-57
2021/07/01 07:00:22;;;;;;;;;;;;;;;18.08;65.64;101183.91;5017743;28;1721;-57
2021/07/01 07:02:47;;;;;;;;;;;;;;;18.08;64.65;101180.34;5017808;28;1619;-58
2021/07/01 07:05:12;;;;;;;;;;;;;;;18.09;65.58;101190.16;5018141;28;1762;-58
2021/07/01 07:07:37;;;;;;;;;;;;;;;18.07;65.63;101190.28;5018183;28;882;-58
2021/07/01 07:10:04;;;;;;;;;;;;;;;18.02;65.78;101189.84;5012768;28;1948;-58
2021/07/01 07:12:29;;;;;;;;;;;;;;;18.02;65.59;101187.16;4998546;28;1905;-58
2021/07/01 07:14:54;;;;;;;;;;;;;;;17.98;65.66;101185.72;4998487;28;842;-58
2021/07/01 07:17:19;;;;;;;;;;;;;;;17.98;66.14;101194.66;4998186;28;1009;-58
2021/07/01 07:19:44;;;;;;;;;;;;;;;17.97;66.02;101187.56;4998461;28;1543;-58
2021/07/01 07:22:09;;;;;;;;;;;;;;;17.97;66.03;101184.00;4998802;28;1756;-58
2021/07/01 07:24:34;;;;;;;;;;;;;;;17.96;65.80;101187.69;5016575;28;1616;-58
2021/07/01 07:27:00;;;;;;;;;;;;;;;17.95;65.89;101196.78;5017729;28;1016;-58
2021/07/01 07:29:25;;;;;;;;;;;;;;;17.97;66.24;101192.09;5017018;28;1894;-58
2021/07/01 07:31:50;;;;;;;;;;;;;;;17.97;65.93;101194.78;5017686;28;980;-57
2021/07/01 07:34:15;;;;;;;;;;;;;;;17.97;65.66;101201.03;5017805;28;1005;-58
2021/07/01 07:36:40;;;;;;;;;;;;;;;18.00;65.84;101199.91;5017658;28;992;-58
2021/07/01 07:39:05;;;;;;;;;;;;;;;17.98;65.44;101202.75;5005849;28;1921;-58
2021/07/01 07:41:30;;;;;;;;;;;;;;;17.98;65.57;101201.88;4997786;28;1422;-58
2021/07/01 07:43:55;;;;;;;;;;;;;;;17.97;65.68;101205.59;4997949;28;997;-58
2021/07/01 07:46:21;;;;;;;;;;;;;;;17.96;65.93;101204.72;4997554;28;848;-58
2021/07/01 07:48:46;;;;;;;;;;;;;;;17.95;65.21;101202.16;4998153;28;1906;-58
2021/07/01 07:51:11;;;;;;;;;;;;;;;17.92;65.32;101197.91;5008557;28;1774;-58
2021/07/01 07:53:36;;;;;;;;;;;;;;;17.94;65.74;101195.06;5017536;28;922;-58
2021/07/01 07:56:01;;;;;;;;;;;;;;;17.94;65.45;101195.06;5017334;28;915;-58
2021/07/01 07:58:26;;;;;;;;;;;;;;;17.95;64.99;101191.38;5017126;28;866;-57
2021/07/01 08:00:52;;;;;;;;;;;;;;;17.93;65.24;101198.75;5015676;28;1784;-57
2021/07/01 08:03:17;;;;;;;;;;;;;;;17.92;64.79;101197.91;5017330;28;849;-57
2021/07/01 08:05:42;;;;;;;;;;;;;;;17.95;65.28;101196.78;5016935;28;1803;-57
2021/07/01 08:08:08;;;;;;;;;;;;;;;17.93;64.92;101196.06;5016799;28;885;-57
2021/07/01 08:10:33;;;;;;;;;;;;;;;17.90;64.80;101205.31;5017123;28;1977;-58
2021/07/01 08:13:06;;;;;;;;;;;;;;;17.92;65.06;101202.44;5009687;28;1899;-56
2021/07/01 08:15:31;;;;;;;;;;;;;;;17.90;65.26;101190.97;4997987;28;1783;-57
2021/07/01 08:17:56;;;;;;;;;;;;;;;17.91;65.00;101193.53;4997702;28;1560;-57
2021/07/01 08:20:21;;;;;;;;;;;;;;;17.91;64.54;101204.31;4997562;28;993;-58
2021/07/01 08:22:46;;;;;;;;;;;;;;;17.93;64.85;101196.91;4997581;28;1017;-58
2021/07/01 08:25:11;;;;;;;;;;;;;;;17.92;65.13;101197.91;5008981;28;1929;-57
2021/07/01 08:27:36;;;;;;;;;;;;;;;17.95;65.00;101204.84;5016765;28;921;-57
2021/07/01 08:30:01;;;;;;;;;;;;;;;17.94;65.13;101204.00;5016651;28;1905;-57
2021/07/01 08:32:26;;;;;;;;;;;;;;;17.96;64.78;101206.56;5016411;28;1016;-58
2021/07/01 08:34:51;;;;;;;;;;;;;;;17.98;64.84;101209.97;5007369;28;1775;-58
2021/07/01 08:37:16;;;;;;;;;;;;;;;17.99;64.71;101214.38;4996938;28;1629;-57
2021/07/01 08:39:41;;;;;;;;;;;;;;;18.01;64.85;101215.09;4996922;28;1740;-57
2021/07/01 08:42:07;;;;;;;;;;;;;;;18.00;64.79;101210.69;4996882;28;861;-58
2021/07/01 08:44:32;;;;;;;;;;;;;;;17.99;64.51;101206.31;5004865;28;1858;-57
2021/07/01 08:46:57;;;;;;;;;;;;;;;17.99;64.67;101209.84;5016206;28;1791;-58
2021/07/01 08:49:22;;;;;;;;;;;;;;;18.00;64.56;101208.00;5016545;28;1977;-58
2021/07/01 08:51:47;;;;;;;;;;;;;;;18.01;64.35;101207.00;5016260;28;1056;-58
2021/07/01 08:54:12;;;;;;;;;;;;;;;17.96;64.04;101215.50;5010642;28;1875;-58
2021/07/01 08:56:37;;;;;;;;;;;;;;;17.92;64.10;101208.69;4996963;28;1643;-58
2021/07/01 08:59:02;;;;;;;;;;;;;;;17.94;64.21;101209.41;4996524;28;997;-57
2021/07/01 09:01:27;;;;;;;;;;;;;;;17.97;64.06;101216.38;4996618;28;997;-58
2021/07/01 09:03:52;;;;;;;;;;;;;;;17.97;64.23;101217.22;5011513;28;1731;-58
2021/07/01 09:06:17;;;;;;;;;;;;;;;17.97;64.06;101221.75;5016583;28;1577;-57
2021/07/01 09:08:42;;;;;;;;;;;;;;;17.91;64.21;101217.78;5015861;28;1906;-58
2021/07/01 09:11:08;;;;;;;;;;;;;;;17.90;63.90;101218.78;5015981;28;917;-58
2021/07/01 09:13:33;;;;;;;;;;;;;;;17.92;63.84;101221.31;5004304;28;1978;-57
2021/07/01 09:15:58;;;;;;;;;;;;;;;17.94;64.06;101220.19;5014098;28;1716;-58
2021/07/01 09:18:23;;;;;;;;;;;;;;;17.96;64.18;101220.91;5015415;28;1829;-56
2021/07/01 09:20:48;;;;;;;;;;;;;;;17.99;64.32;101225.19;5015270;28;1510;-58
2021/07/01 09:23:13;;;;;;;;;;;;;;;17.98;64.32;101221.63;5014352;28;1519;-57
2021/07/01 09:25:38;;;;;;;;;;;;;;;17.97;64.28;101217.22;5015363;28;1575;-58
2021/07/01 09:28:03;;;;;;;;;;;;;;;18.01;64.44;101220.50;5015772;28;1637;-56
2021/07/01 09:30:28;;;;;;;;;;;;;;;18.08;64.15;101227.06;5015551;28;1890;-58
2021/07/01 09:32:53;;;;;;;;;;;;;;;18.09;63.95;101223.38;5005900;28;1774;-57
2021/07/01 09:35:18;;;;;;;;;;;;;;;18.21;63.97;101229.50;4996269;28;1547;-58
2021/07/01 09:37:44;;;;;;;;;;;;;;;18.21;63.72;101219.56;5012552;28;1565;-57
2021/07/01 09:40:09;;;;;;;;;;;;;;;18.19;63.80;101215.28;5015063;28;1620;-57
2021/07/01 09:42:34;;;;;;;;;;;;;;;18.29;64.00;101217.00;5014520;28;1901;-58
